Time,TemperatureF,DewpointF,PressureIn,WindDirection,WindDirectionDegrees,WindSpeedMPH,WindSpeedGustMPH,Humidity,HourlyPrecipIn,Conditions,Clouds,dailyrainin,SoftwareType,DateUTC
2013-05-24 00:01:00,40.0,31.0,-100.00,NE,45,3.0,5.0,70,-99.99,,,-99.99,,2013-05-24 07:01:00,
2013-05-24 00:11:00,40.0,31.0,-100.00,NE,45,3.0,5.0,70,-99.99,,,-99.99,,2013-05-24 07:11:00,
2013-05-24 00:22:00,41.0,31.0,-100.00,NE,45,1.0,2.0,69,-99.99,,,-99.99,,2013-05-24 07:22:00,
2013-05-24 00:31:00,41.0,31.0,-100.00,NE,45,1.0,2.0,69,-99.99,,,-99.99,,2013-05-24 07:31:00,
2013-05-24 00:42:00,41.0,31.0,-100.00,NE,45,1.0,2.0,69,-99.99,,,-99.99,,2013-05-24 07:42:00,
2013-05-24 00:52:00,40.0,32.0,-100.00,NW,315,3.0,3.0,73,-99.99,,,-99.99,,2013-05-24 07:52:00,
2013-05-24 01:02:00,41.0,31.0,-100.00,NW,315,1.0,3.0,69,-99.99,,,-99.99,,2013-05-24 08:02:00,
2013-05-24 01:11:00,41.0,31.0,-100.00,NW,315,1.0,3.0,69,-99.99,,,-99.99,,2013-05-24 08:11:00,
2013-05-24 01:22:00,41.0,31.0,-100.00,North,0,0.0,1.0,66,-99.99,,,-99.99,,2013-05-24 08:22:00,
2013-05-24 01:32:00,41.0,31.0,-100.00,NW,315,1.0,2.0,66,-99.99,,,-99.99,,2013-05-24 08:32:00,
2013-05-24 01:41:00,41.0,31.0,-100.00,NW,315,1.0,2.0,66,-99.99,,,-99.99,,2013-05-24 08:41:00,
2013-05-24 01:52:00,40.0,31.0,-100.00,SE,135,1.0,3.0,71,-99.99,,,-99.99,,2013-05-24 08:52:00,
2013-05-24 02:01:00,40.0,31.0,-100.00,SE,135,2.0,3.0,72,-99.99,,,-99.99,,2013-05-24 09:01:00,
2013-05-24 02:11:00,40.0,31.0,-100.00,SE,135,2.0,3.0,72,-99.99,,,-99.99,,2013-05-24 09:11:00,
2013-05-24 02:21:00,38.0,31.0,-100.00,South,180,2.0,3.0,74,-99.99,,,-99.99,,2013-05-24 09:21:00,
2013-05-24 02:32:00,38.0,30.0,-100.00,South,180,2.0,3.0,74,-99.99,,,-99.99,,2013-05-24 09:32:00,
2013-05-24 02:42:00,38.0,30.0,-100.00,South,180,2.0,3.0,74,-99.99,,,-99.99,,2013-05-24 09:42:00,
2013-05-24 02:53:00,36.0,29.0,-100.00,South,180,2.0,3.0,77,-99.99,,,-99.99,,2013-05-24 09:53:00,
2013-05-24 03:02:00,36.0,29.0,-100.00,SE,135,1.0,3.0,77,-99.99,,,-99.99,,2013-05-24 10:02:00,
2013-05-24 03:12:00,34.0,27.0,-100.00,NE,45,3.0,4.0,77,-99.99,,,-99.99,,2013-05-24 10:12:00,
2013-05-24 03:22:00,34.0,27.0,-100.00,NE,45,3.0,4.0,77,-99.99,,,-99.99,,2013-05-24 10:22:00,
2013-05-24 03:32:00,34.0,28.0,-100.00,SE,135,1.0,4.0,80,-99.99,,,-99.99,,2013-05-24 10:32:00,
2013-05-24 03:42:00,34.0,28.0,-100.00,South,180,1.0,4.0,80,-99.99,,,-99.99,,2013-05-24 10:42:00,
2013-05-24 03:52:00,34.0,28.0,-100.00,South,180,1.0,4.0,80,-99.99,,,-99.99,,2013-05-24 10:52:00,
2013-05-24 04:02:00,34.0,28.0,-100.00,SE,135,1.0,4.0,79,-99.99,,,-99.99,,2013-05-24 11:02:00,
2013-05-24 04:12:00,34.0,28.0,-100.00,SE,135,1.0,4.0,79,-99.99,,,-99.99,,2013-05-24 11:12:00,
2013-05-24 04:22:00,33.0,28.0,-100.00,South,180,3.0,4.0,79,-99.99,,,-99.99,,2013-05-24 11:22:00,
2013-05-24 04:32:00,34.0,28.0,-100.00,SW,225,1.0,3.0,81,-99.99,,,-99.99,,2013-05-24 11:32:00,
2013-05-24 04:41:00,34.0,28.0,-100.00,SW,225,1.0,3.0,81,-99.99,,,-99.99,,2013-05-24 11:41:00,
2013-05-24 04:52:00,33.0,27.0,-100.00,East,90,0.0,2.0,79,-99.99,,,-99.99,,2013-05-24 11:52:00,
2013-05-24 05:01:00,33.0,28.0,-100.00,SW,225,1.0,2.0,81,-99.99,,,-99.99,,2013-05-24 12:01:00,
2013-05-24 05:11:00,33.0,28.0,-100.00,SW,225,1.0,2.0,81,-99.99,,,-99.99,,2013-05-24 12:11:00,
2013-05-24 05:21:00,34.0,29.0,-100.00,NE,45,0.0,1.0,79,-99.99,,,-99.99,,2013-05-24 12:21:00,
2013-05-24 05:32:00,35.0,30.0,-100.00,NW,315,1.0,2.0,82,-99.99,,,-99.99,,2013-05-24 12:32:00,
2013-05-24 05:42:00,35.0,30.0,-100.00,NW,315,1.0,2.0,82,-99.99,,,-99.99,,2013-05-24 12:42:00,
2013-05-24 05:52:00,35.0,30.0,-100.00,NW,315,2.0,3.0,82,-99.99,,,-99.99,,2013-05-24 12:52:00,
2013-05-24 06:02:00,35.0,30.0,-100.00,North,0,1.0,3.0,83,-99.99,,,-99.99,,2013-05-24 13:02:00,
2013-05-24 06:11:00,35.0,30.0,-100.00,North,0,1.0,3.0,83,-99.99,,,-99.99,,2013-05-24 13:11:00,
2013-05-24 06:21:00,35.0,30.0,-100.00,NE,45,1.0,3.0,82,-99.99,,,-99.99,,2013-05-24 13:21:00,
2013-05-24 06:31:00,36.0,30.0,-100.00,East,90,2.0,3.0,78,-99.99,,,-99.99,,2013-05-24 13:31:00,
2013-05-24 06:41:00,36.0,30.0,-100.00,East,90,2.0,3.0,78,-99.99,,,-99.99,,2013-05-24 13:41:00,
2013-05-24 06:52:00,36.0,29.0,-100.00,SE,135,3.0,4.0,77,-99.99,,,-99.99,,2013-05-24 13:52:00,
2013-05-24 07:01:00,37.0,30.0,-100.00,SE,135,3.0,4.0,75,-99.99,,,-99.99,,2013-05-24 14:01:00,
2013-05-24 07:11:00,37.0,30.0,-100.00,SE,135,3.0,4.0,75,-99.99,,,-99.99,,2013-05-24 14:11:00,
2013-05-24 07:21:00,38.0,30.0,-100.00,East,90,2.0,3.0,73,-99.99,,,-99.99,,2013-05-24 14:21:00,
2013-05-24 07:31:00,39.0,30.0,-100.00,SE,135,1.0,3.0,71,-99.99,,,-99.99,,2013-05-24 14:31:00,
2013-05-24 07:42:00,39.0,30.0,-100.00,SE,135,1.0,3.0,71,-99.99,,,-99.99,,2013-05-24 14:42:00,
2013-05-24 07:52:00,39.0,31.0,-100.00,South,180,1.0,2.0,72,-99.99,,,-99.99,,2013-05-24 14:52:00,
2013-05-24 08:02:00,39.0,31.0,-100.00,South,180,1.0,2.0,72,-99.99,,,-99.99,,2013-05-24 15:02:00,
2013-05-24 08:11:00,39.0,31.0,-100.00,South,180,1.0,2.0,72,-99.99,,,-99.99,,2013-05-24 15:11:00,
2013-05-24 08:21:00,44.0,31.0,-100.00,South,180,1.0,1.0,60,-99.99,,,-99.99,,2013-05-24 15:21:00,
2013-05-24 08:32:00,43.0,31.0,-100.00,NW,315,1.0,6.0,61,-99.99,,,-99.99,,2013-05-24 15:32:00,
2013-05-24 08:43:00,43.0,31.0,-100.00,NW,315,1.0,6.0,61,-99.99,,,-99.99,,2013-05-24 15:43:00,
2013-05-24 08:52:00,43.0,30.0,-100.00,NW,315,6.0,8.0,60,-99.99,,,-99.99,,2013-05-24 15:52:00,
2013-05-24 09:03:00,43.0,31.0,-100.00,NW,315,5.0,8.0,62,-99.99,,,-99.99,,2013-05-24 16:03:00,
2013-05-24 09:12:00,43.0,31.0,-100.00,NW,315,5.0,8.0,62,-99.99,,,-99.99,,2013-05-24 16:12:00,
2013-05-24 09:22:00,44.0,30.0,-100.00,NW,315,2.0,9.0,58,-99.99,,,-99.99,,2013-05-24 16:22:00,
2013-05-24 09:32:00,46.0,30.0,-100.00,SE,135,1.0,6.0,53,-99.99,,,-99.99,,2013-05-24 16:32:00,
2013-05-24 09:42:00,46.0,30.0,-100.00,SE,135,1.0,6.0,53,-99.99,,,-99.99,,2013-05-24 16:42:00,
2013-05-24 09:52:00,48.0,31.0,-100.00,NE,45,6.0,9.0,51,-99.99,,,-99.99,,2013-05-24 16:52:00,
2013-05-24 10:01:00,48.0,29.0,-100.00,NE,45,4.0,6.0,48,-99.99,,,-99.99,,2013-05-24 17:01:00,
2013-05-24 10:12:00,48.0,29.0,-100.00,NE,45,4.0,6.0,48,-99.99,,,-99.99,,2013-05-24 17:12:00,
2013-05-24 10:22:00,50.0,31.0,-100.00,NE,45,6.0,10.0,48,-99.99,,,-99.99,,2013-05-24 17:22:00,
2013-05-24 10:32:00,47.0,30.0,-100.00,NW,315,4.0,11.0,51,-99.99,,,-99.99,,2013-05-24 17:32:00,
2013-05-24 10:41:00,47.0,30.0,-100.00,NW,315,4.0,11.0,51,-99.99,,,-99.99,,2013-05-24 17:41:00,
2013-05-24 10:52:00,49.0,30.0,-100.00,NW,315,2.0,11.0,48,-99.99,,,-99.99,,2013-05-24 17:52:00,
2013-05-24 11:01:00,49.0,30.0,-100.00,NW,315,4.0,12.0,48,-99.99,,,-99.99,,2013-05-24 18:01:00,
2013-05-24 11:11:00,49.0,30.0,-100.00,NW,315,4.0,12.0,48,-99.99,,,-99.99,,2013-05-24 18:11:00,
2013-05-24 11:21:00,53.0,31.0,-100.00,NE,45,3.0,9.0,43,-99.99,,,-99.99,,2013-05-24 18:21:00,
2013-05-24 11:32:00,51.0,30.0,-100.00,West,270,5.0,11.0,44,-99.99,,,-99.99,,2013-05-24 18:32:00,
2013-05-24 11:41:00,51.0,30.0,-100.00,West,270,5.0,11.0,44,-99.99,,,-99.99,,2013-05-24 18:41:00,
2013-05-24 11:52:00,52.0,30.0,-100.00,NW,315,6.0,12.0,43,-99.99,,,-99.99,,2013-05-24 18:52:00,
2013-05-24 12:01:00,53.0,31.0,-100.00,West,270,7.0,10.0,42,-99.99,,,-99.99,,2013-05-24 19:01:00,
2013-05-24 12:11:00,53.0,31.0,-100.00,West,270,7.0,10.0,42,-99.99,,,-99.99,,2013-05-24 19:11:00,
2013-05-24 12:21:00,54.0,29.0,-100.00,NW,315,8.0,10.0,38,-99.99,,,-99.99,,2013-05-24 19:21:00,
2013-05-24 12:31:00,54.0,30.0,-100.00,NW,315,6.0,10.0,40,-99.99,,,-99.99,,2013-05-24 19:31:00,
2013-05-24 12:41:00,54.0,30.0,-100.00,NW,315,6.0,10.0,40,-99.99,,,-99.99,,2013-05-24 19:41:00,
2013-05-24 12:52:00,54.0,30.0,-100.00,NW,315,9.0,12.0,40,-99.99,,,-99.99,,2013-05-24 19:52:00,
2013-05-24 13:02:00,55.0,29.0,-100.00,North,0,6.0,9.0,37,-99.99,,,-99.99,,2013-05-24 20:02:00,
2013-05-24 13:11:00,55.0,29.0,-100.00,North,0,6.0,9.0,37,-99.99,,,-99.99,,2013-05-24 20:11:00,
2013-05-24 13:21:00,55.0,29.0,-100.00,NW,315,8.0,11.0,37,-99.99,,,-99.99,,2013-05-24 20:21:00,
2013-05-24 13:31:00,57.0,29.0,-100.00,NW,315,9.0,11.0,33,-99.99,,,-99.99,,2013-05-24 20:31:00,
2013-05-24 13:41:00,57.0,29.0,-100.00,NW,315,9.0,11.0,33,-99.99,,,-99.99,,2013-05-24 20:41:00,
2013-05-24 13:52:00,58.0,29.0,-100.00,North,0,4.0,11.0,32,-99.99,,,-99.99,,2013-05-24 20:52:00,
2013-05-24 14:01:00,57.0,26.0,-100.00,NW,315,9.0,12.0,30,-99.99,,,-99.99,,2013-05-24 21:01:00,
2013-05-24 14:11:00,58.0,24.0,-100.00,NW,315,5.0,10.0,27,-99.99,,,-99.99,,2013-05-24 21:11:00,
2013-05-24 14:21:00,58.0,24.0,-100.00,NW,315,5.0,10.0,27,-99.99,,,-99.99,,2013-05-24 21:21:00,
2013-05-24 14:32:00,58.0,23.0,-100.00,NE,45,4.0,11.0,26,-99.99,,,-99.99,,2013-05-24 21:32:00,
2013-05-24 14:42:00,60.0,25.0,-100.00,NE,45,4.0,9.0,26,-99.99,,,-99.99,,2013-05-24 21:42:00,
2013-05-24 14:53:00,58.0,23.0,-100.00,North,0,5.0,10.0,26,-99.99,,,-99.99,,2013-05-24 21:53:00,
2013-05-24 15:02:00,58.0,23.0,-100.00,North,0,5.0,10.0,26,-99.99,,,-99.99,,2013-05-24 22:02:00,
2013-05-24 15:12:00,59.0,23.0,-100.00,NW,315,4.0,11.0,25,-99.99,,,-99.99,,2013-05-24 22:12:00,
2013-05-24 15:22:00,59.0,23.0,-100.00,NW,315,4.0,11.0,25,-99.99,,,-99.99,,2013-05-24 22:22:00,
2013-05-24 15:32:00,60.0,24.0,-100.00,North,0,11.0,14.0,25,-99.99,,,-99.99,,2013-05-24 22:32:00,
2013-05-24 15:42:00,60.0,24.0,-100.00,North,0,11.0,14.0,25,-99.99,,,-99.99,,2013-05-24 22:42:00,
2013-05-24 15:52:00,61.0,24.0,-100.00,West,270,4.0,7.0,24,-99.99,,,-99.99,,2013-05-24 22:52:00,
2013-05-24 16:02:00,61.0,25.0,-100.00,SW,225,1.0,8.0,25,-99.99,,,-99.99,,2013-05-24 23:02:00,
2013-05-24 16:11:00,61.0,25.0,-100.00,SW,225,1.0,8.0,25,-99.99,,,-99.99,,2013-05-24 23:11:00,
2013-05-24 16:22:00,63.0,18.0,-100.00,South,180,4.0,7.0,17,-99.99,,,-99.99,,2013-05-24 23:22:00,
2013-05-24 16:32:00,61.0,17.0,-100.00,South,180,8.0,11.0,18,-99.99,,,-99.99,,2013-05-24 23:32:00,
2013-05-24 16:42:00,61.0,17.0,-100.00,South,180,8.0,11.0,18,-99.99,,,-99.99,,2013-05-24 23:42:00,
2013-05-24 16:52:00,61.0,20.0,-100.00,SE,135,4.0,11.0,20,-99.99,,,-99.99,,2013-05-24 23:52:00,
2013-05-24 17:01:00,61.0,21.0,-100.00,SE,135,5.0,17.0,21,-99.99,,,-99.99,,2013-05-25 00:01:00,
2013-05-24 17:11:00,61.0,21.0,-100.00,SE,135,5.0,17.0,21,-99.99,,,-99.99,,2013-05-25 00:11:00,
2013-05-24 17:21:00,60.0,20.0,-100.00,SE,135,5.0,13.0,21,-99.99,,,-99.99,,2013-05-25 00:21:00,
2013-05-24 17:32:00,60.0,22.0,-100.00,SW,225,4.0,8.0,23,-99.99,,,-99.99,,2013-05-25 00:32:00,
2013-05-24 17:41:00,60.0,22.0,-100.00,SW,225,4.0,8.0,23,-99.99,,,-99.99,,2013-05-25 00:41:00,
2013-05-24 17:52:00,60.0,21.0,-100.00,SW,225,4.0,10.0,22,-99.99,,,-99.99,,2013-05-25 00:52:00,
2013-05-24 18:01:00,59.0,21.0,-100.00,SW,225,6.0,9.0,22,-99.99,,,-99.99,,2013-05-25 01:01:00,
2013-05-24 18:11:00,59.0,21.0,-100.00,SW,225,6.0,9.0,22,-99.99,,,-99.99,,2013-05-25 01:11:00,
2013-05-24 18:22:00,60.0,22.0,-100.00,SW,225,2.0,6.0,23,-99.99,,,-99.99,,2013-05-25 01:22:00,
2013-05-24 18:32:00,59.0,24.0,-100.00,SW,225,4.0,8.0,25,-99.99,,,-99.99,,2013-05-25 01:32:00,
2013-05-24 18:41:00,59.0,24.0,-100.00,SW,225,4.0,8.0,25,-99.99,,,-99.99,,2013-05-25 01:41:00,
2013-05-24 18:52:00,59.0,24.0,-100.00,SW,225,4.0,7.0,25,-99.99,,,-99.99,,2013-05-25 01:52:00,
2013-05-24 19:01:00,59.0,24.0,-100.00,SW,225,4.0,10.0,26,-99.99,,,-99.99,,2013-05-25 02:01:00,
2013-05-24 19:11:00,59.0,24.0,-100.00,SW,225,4.0,10.0,26,-99.99,,,-99.99,,2013-05-25 02:11:00,
2013-05-24 19:21:00,58.0,27.0,-100.00,SW,225,6.0,11.0,31,-99.99,,,-99.99,,2013-05-25 02:21:00,
2013-05-24 19:31:00,58.0,29.0,-100.00,SW,225,5.0,10.0,33,-99.99,,,-99.99,,2013-05-25 02:31:00,
2013-05-24 19:42:00,58.0,29.0,-100.00,SW,225,5.0,10.0,33,-99.99,,,-99.99,,2013-05-25 02:42:00,
2013-05-24 19:52:00,57.0,30.0,-100.00,SW,225,5.0,12.0,36,-99.99,,,-99.99,,2013-05-25 02:52:00,
2013-05-24 20:01:00,56.0,31.0,-100.00,SW,225,6.0,12.0,38,-99.99,,,-99.99,,2013-05-25 03:01:00,
2013-05-24 20:11:00,56.0,31.0,-100.00,SW,225,6.0,12.0,38,-99.99,,,-99.99,,2013-05-25 03:11:00,
2013-05-24 20:21:00,55.0,31.0,-100.00,SW,225,8.0,12.0,40,-99.99,,,-99.99,,2013-05-25 03:21:00,
2013-05-24 20:32:00,55.0,32.0,-100.00,SW,225,4.0,10.0,42,-99.99,,,-99.99,,2013-05-25 03:32:00,
2013-05-24 20:43:00,55.0,32.0,-100.00,SW,225,4.0,10.0,42,-99.99,,,-99.99,,2013-05-25 03:43:00,
2013-05-24 20:53:00,54.0,32.0,-100.00,SW,225,5.0,10.0,43,-99.99,,,-99.99,,2013-05-25 03:53:00,
2013-05-24 21:02:00,53.0,32.0,-100.00,SW,225,6.0,11.0,45,-99.99,,,-99.99,,2013-05-25 04:02:00,
2013-05-24 21:12:00,53.0,32.0,-100.00,SW,225,6.0,11.0,45,-99.99,,,-99.99,,2013-05-25 04:12:00,
2013-05-24 21:23:00,53.0,32.0,-100.00,SW,225,6.0,14.0,44,-99.99,,,-99.99,,2013-05-25 04:23:00,
2013-05-24 21:32:00,53.0,30.0,-100.00,SW,225,7.0,12.0,42,-99.99,,,-99.99,,2013-05-25 04:32:00,
2013-05-24 21:43:00,53.0,30.0,-100.00,SW,225,7.0,12.0,42,-99.99,,,-99.99,,2013-05-25 04:43:00,
2013-05-24 21:52:00,52.0,31.0,-100.00,SW,225,6.0,10.0,44,-99.99,,,-99.99,,2013-05-25 04:52:00,
2013-05-24 22:02:00,52.0,31.0,-100.00,West,270,6.0,16.0,44,-99.99,,,-99.99,,2013-05-25 05:02:00,
2013-05-24 22:12:00,52.0,31.0,-100.00,West,270,6.0,16.0,44,-99.99,,,-99.99,,2013-05-25 05:12:00,
2013-05-24 22:22:00,52.0,32.0,-100.00,West,270,1.0,11.0,45,-99.99,,,-99.99,,2013-05-25 05:22:00,
2013-05-24 22:32:00,51.0,32.0,-100.00,NW,315,4.0,5.0,48,-99.99,,,-99.99,,2013-05-25 05:32:00,
2013-05-24 22:42:00,51.0,32.0,-100.00,NW,315,4.0,5.0,48,-99.99,,,-99.99,,2013-05-25 05:42:00,
2013-05-24 22:52:00,51.0,32.0,-100.00,NW,315,3.0,4.0,49,-99.99,,,-99.99,,2013-05-25 05:52:00,
2013-05-24 23:01:00,51.0,32.0,-100.00,NW,315,6.0,7.0,49,-99.99,,,-99.99,,2013-05-25 06:01:00,
2013-05-24 23:12:00,51.0,32.0,-100.00,NW,315,6.0,7.0,49,-99.99,,,-99.99,,2013-05-25 06:12:00,
2013-05-24 23:21:00,51.0,32.0,-100.00,West,270,3.0,6.0,48,-99.99,,,-99.99,,2013-05-25 06:21:00,
2013-05-24 23:32:00,50.0,34.0,-100.00,NW,315,3.0,6.0,54,-99.99,,,-99.99,,2013-05-25 06:32:00,
2013-05-24 23:42:00,50.0,34.0,-100.00,NW,315,3.0,6.0,54,-99.99,,,-99.99,,2013-05-25 06:42:00,
2013-05-24 23:52:00,49.0,36.0,-100.00,NE,45,4.0,6.0,60,-99.99,,,-99.99,,2013-05-25 06:52:00,